Time;durP1;ratioP1;P1;durP2;ratioP2;P2;SDS_P1;SDS_P2;PMS_P1;PMS_P2;Temp;Humidity;BMP_temperature;BMP_pressure;BME280_temperature;BME280_humidity;BME280_pressure;Samples;Min_cycle;Max_cycle;Signal;HPM_P1;HPM_P2
2022/06/26 00:01:49;;;;;;;2.80;2.47;;;25.90;56.60;;;;;;5066963;28;20260;-65
2022/06/26 00:04:18;;;;;;;3.93;2.70;;;25.90;56.60;;;;;;5066780;28;20198;-65
2022/06/26 00:06:46;;;;;;;3.73;2.47;;;25.90;56.70;;;;;;5065720;28;20972;-66
2022/06/26 00:09:15;;;;;;;2.77;2.50;;;25.90;56.70;;;;;;5064615;28;20206;-66
2022/06/26 00:11:43;;;;;;;2.80;2.50;;;25.90;56.80;;;;;;5067354;28;20190;-65
2022/06/26 00:14:11;;;;;;;2.93;2.40;;;25.90;56.80;;;;;;5063936;28;20193;-65
2022/06/26 00:16:43;;;;;;;3.00;2.67;;;25.90;56.90;;;;;;5063293;28;20251;-66
2022/06/26 00:19:14;;;;;;;6.00;2.80;;;25.90;61.40;;;;;;5066708;28;20694;-66
2022/06/26 00:21:43;;;;;;;3.07;2.77;;;25.90;57.00;;;;;;5034756;28;20202;-66
2022/06/26 00:24:13;;;;;;;3.97;2.90;;;25.90;57.00;;;;;;5067230;28;20607;-66
2022/06/26 00:26:41;;;;;;;3.10;2.70;;;25.80;57.00;;;;;;5052964;28;20197;-66
2022/06/26 00:29:09;;;;;;;2.97;2.70;;;25.90;57.20;;;;;;5056689;28;20203;-66
2022/06/26 00:31:39;;;;;;;4.17;3.20;;;25.90;57.20;;;;;;5066757;28;20193;-66
2022/06/26 00:34:06;;;;;;;4.07;3.03;;;25.80;57.20;;;;;;5054906;28;20217;-66
2022/06/26 00:36:37;;;;;;;3.23;2.93;;;25.80;57.20;;;;;;5059504;28;20828;-67
2022/06/26 00:39:06;;;;;;;3.03;2.80;;;25.80;57.40;;;;;;5049180;28;20382;-66
2022/06/26 00:41:34;;;;;;;3.27;2.80;;;25.80;57.40;;;;;;5066491;28;20186;-65
2022/06/26 00:44:21;;;;;;;2.93;2.73;;;25.80;57.50;;;;;;5058764;28;20213;-66
2022/06/26 00:46:50;;;;;;;2.80;2.60;;;25.80;57.60;;;;;;5033232;28;20678;-65
2022/06/26 00:49:20;;;;;;;4.27;3.03;;;25.80;57.60;;;;;;5048314;28;20229;-65
2022/06/26 00:51:52;;;;;;;5.37;3.00;;;25.80;57.60;;;;;;5066024;28;20339;-65
2022/06/26 00:54:23;;;;;;;3.60;3.13;;;25.80;57.60;;;;;;5065037;28;20193;-65
2022/06/26 00:56:55;;;;;;;3.77;3.00;;;25.80;57.70;;;;;;5059069;28;20753;-65
2022/06/26 00:59:26;;;;;;;3.60;3.30;;;25.80;57.80;;;;;;5066124;28;20197;-65
2022/06/26 01:01:53;;;;;;;2.97;2.77;;;25.70;57.70;;;;;;5065362;28;20201;-65
2022/06/26 01:04:23;;;;;;;3.77;3.10;;;25.80;57.90;;;;;;5063971;28;20264;-65
2022/06/26 01:06:51;;;;;;;5.60;3.30;;;25.80;57.90;;;;;;5065520;28;20198;-65
2022/06/26 01:09:18;;;;;;;3.53;3.17;;;25.80;57.90;;;;;;5045178;28;20221;-65
2022/06/26 01:11:48;;;;;;;4.73;2.80;;;25.80;57.90;;;;;;5065303;28;20206;-65
2022/06/26 01:14:19;;;;;;;3.43;3.13;;;25.70;57.80;;;;;;5064766;28;20178;-65
2022/06/26 01:16:46;;;;;;;3.57;3.07;;;25.70;57.90;;;;;;5054465;28;20221;-65
2022/06/26 01:19:17;;;;;;;3.47;3.17;;;25.70;57.90;;;;;;5050787;28;20216;-65
2022/06/26 01:21:45;;;;;;;5.40;3.40;;;25.70;57.90;;;;;;5068163;28;20612;-65
2022/06/26 01:24:13;;;;;;;3.17;2.90;;;25.70;58.00;;;;;;5070440;28;20197;-65
2022/06/26 01:26:40;;;;;;;6.70;3.40;;;25.70;58.00;;;;;;5066917;28;20202;-65
2022/06/26 01:29:07;;;;;;;7.83;3.23;;;25.70;58.00;;;;;;5066196;28;20200;-65
2022/06/26 01:31:34;;;;;;;3.63;3.23;;;25.70;58.00;;;;;;5069267;28;20210;-65
2022/06/26 01:34:07;;;;;;;4.53;3.60;;;25.70;58.00;;;;;;5066368;28;20210;-65
2022/06/26 01:36:37;;;;;;;4.13;3.60;;;25.70;58.00;;;;;;5066694;28;20701;-65
2022/06/26 01:39:05;;;;;;;3.73;3.33;;;25.70;57.90;;;;;;5068661;28;20197;-65
2022/06/26 01:41:32;;;;;;;4.60;3.10;;;25.70;57.90;;;;;;5069180;28;20198;-65
2022/06/26 01:44:01;;;;;;;4.33;3.40;;;25.70;57.90;;;;;;5068489;28;20196;-66
2022/06/26 01:46:34;;;;;;;4.00;3.60;;;25.70;58.00;;;;;;5032385;28;20194;-65
2022/06/26 01:49:02;;;;;;;3.73;3.43;;;25.70;57.90;;;;;;5068903;28;20236;-65
2022/06/26 01:51:33;;;;;;;3.30;3.10;;;25.60;57.80;;;;;;5068554;28;20201;-65
2022/06/26 01:54:01;;;;;;;3.80;3.40;;;25.70;57.80;;;;;;5068978;28;20210;-65
2022/06/26 01:56:29;;;;;;;4.30;3.77;;;25.70;57.80;;;;;;5062657;28;20208;-65
2022/06/26 01:58:56;;;;;;;4.57;3.93;;;25.60;57.70;;;;;;5040368;28;20210;-65
2022/06/26 02:01:24;;;;;;;4.60;3.93;;;25.70;57.80;;;;;;5052117;28;20194;-65
2022/06/26 02:03:53;;;;;;;4.00;3.70;;;25.60;57.70;;;;;;5031605;28;20524;-65
2022/06/26 02:06:21;;;;;;;4.53;4.10;;;25.60;57.70;;;;;;5068486;28;20209;-64
2022/06/26 02:08:51;;;;;;;6.83;4.17;;;25.60;57.70;;;;;;5066425;28;20221;-64
2022/06/26 02:14:14;;;;;;;4.53;4.23;;;25.60;57.60;;;;;;5062899;28;20259;-65
2022/06/26 02:16:44;;;;;;;6.33;4.30;;;25.60;57.60;;;;;;5066530;28;20248;-64
2022/06/26 02:19:14;;;;;;;5.10;4.60;;;25.60;57.60;;;;;;5068586;28;20202;-64
2022/06/26 02:21:42;;;;;;;4.80;4.30;;;25.60;57.60;;;;;;5065153;28;20693;-65
2022/06/26 02:24:11;;;;;;;4.93;4.37;;;25.60;57.60;;;;;;5067364;28;20196;-64
2022/06/26 02:26:41;;;;;;;4.30;4.00;;;25.60;57.50;;;;;;5065277;28;20210;-66
2022/06/26 02:29:10;;;;;;;4.60;4.07;;;25.60;57.50;;;;;;5057714;28;20700;-64
2022/06/26 02:31:45;;;;;;;4.60;4.20;;;25.60;57.50;;;;;;5068514;28;20213;-64
2022/06/26 02:34:15;;;;;;;4.73;4.23;;;25.50;57.40;;;;;;5056081;28;20223;-65
2022/06/26 02:36:46;;;;;;;5.47;4.60;;;25.60;57.50;;;;;;5066424;28;20353;-65
2022/06/26 02:39:14;;;;;;;4.30;4.00;;;25.60;57.40;;;;;;5068812;28;20197;-65
2022/06/26 02:41:43;;;;;;;4.40;4.00;;;25.60;57.20;;;;;;5068743;28;20190;-65
2022/06/26 02:44:16;;;;;;;7.27;4.50;;;25.60;57.40;;;;;;5058238;28;20650;-65
2022/06/26 02:46:46;;;;;;;6.07;4.53;;;25.50;57.30;;;;;;5063888;28;20210;-65
2022/06/26 02:49:16;;;;;;;5.80;4.13;;;25.50;57.10;;;;;;5068376;28;20193;-65
2022/06/26 02:51:45;;;;;;;4.73;4.33;;;25.50;57.20;;;;;;5068167;28;20236;-65
2022/06/26 02:54:27;;;;;;;4.60;4.20;;;25.50;57.10;;;;;;5030753;28;20285;-65
2022/06/26 02:56:57;;;;;;;4.17;3.77;;;25.50;57.00;;;;;;5066321;28;20234;-65
2022/06/26 02:59:27;;;;;;;4.17;3.83;;;25.50;57.20;;;;;;5050052;28;20202;-66
2022/06/26 03:01:57;;;;;;;3.83;3.53;;;25.50;57.10;;;;;;5059007;28;20193;-66
2022/06/26 03:04:24;;;;;;;4.23;3.83;;;25.50;57.00;;;;;;5049155;28;20201;-65
2022/06/26 03:06:57;;;;;;;4.30;3.83;;;25.50;57.10;;;;;;5068298;28;20194;-65
2022/06/26 03:09:24;;;;;;;5.30;3.73;;;25.50;57.00;;;;;;5049379;28;20210;-65
2022/06/26 03:11:55;;;;;;;4.70;4.20;;;25.50;56.90;;;;;;5068643;28;20566;-65
2022/06/26 03:14:24;;;;;;;5.77;3.73;;;25.40;56.80;;;;;;5030195;28;20201;-65
2022/06/26 03:16:58;;;;;;;4.93;3.70;;;25.50;56.70;;;;;;5068619;28;20221;-65
2022/06/26 03:19:25;;;;;;;3.53;3.23;;;25.40;56.70;;;;;;5050466;28;20194;-65
2022/06/26 03:21:55;;;;;;;3.30;2.97;;;25.50;56.60;;;;;;5070591;28;20283;-65
2022/06/26 03:24:26;;;;;;;4.40;3.97;;;25.50;59.90;;;;;;5065882;28;20190;-65
2022/06/26 03:26:55;;;;;;;3.60;3.30;;;25.40;56.70;;;;;;5065498;28;20198;-65
2022/06/26 03:29:26;;;;;;;4.00;3.60;;;25.60;65.70;;;;;;5047300;28;20275;-65
2022/06/26 03:31:55;;;;;;;3.10;2.80;;;25.50;58.40;;;;;;5064996;28;20198;-65
2022/06/26 03:34:25;;;;;;;4.23;3.27;;;25.40;56.70;;;;;;5044637;28;20217;-65
2022/06/26 03:36:53;;;;;;;6.73;3.57;;;25.40;56.70;;;;;;5066854;28;20213;-65
2022/06/26 03:39:22;;;;;;;3.80;3.00;;;25.40;56.50;;;;;;5049789;28;20182;-65
2022/06/26 03:42:00;;;;;;;3.90;3.10;;;25.40;56.50;;;;;;5050585;28;20201;-65
2022/06/26 03:44:29;;;;;;;3.50;3.20;;;25.40;56.60;;;;;;5059752;28;20204;-65
2022/06/26 03:46:59;;;;;;;3.87;2.90;;;25.40;56.50;;;;;;5050170;28;20194;-65
2022/06/26 03:49:28;;;;;;;2.87;2.60;;;25.40;56.50;;;;;;5067016;28;20256;-65
2022/06/26 03:51:57;;;;;;;13.03;2.77;;;25.40;56.40;;;;;;5067620;28;20520;-65
2022/06/26 03:54:27;;;;;;;3.80;3.00;;;25.40;56.40;;;;;;5063358;28;20619;-65
2022/06/26 03:56:59;;;;;;;3.30;3.00;;;25.40;56.40;;;;;;5052365;28;20242;-65
2022/06/26 03:59:30;;;;;;;3.47;2.80;;;25.40;56.20;;;;;;5066525;28;20267;-64
2022/06/26 04:02:04;;;;;;;3.63;2.97;;;25.40;57.00;;;;;;5051281;28;20209;-65
2022/06/26 04:04:34;;;;;;;3.53;2.60;;;25.40;56.30;;;;;;5064012;28;20503;-65
2022/06/26 04:07:06;;;;;;;3.37;2.63;;;25.40;56.80;;;;;;5067476;28;20193;-65
2022/06/26 04:09:35;;;;;;;3.10;2.60;;;25.40;56.20;;;;;;5064492;28;20198;-65
2022/06/26 04:12:02;;;;;;;7.53;3.03;;;25.40;56.10;;;;;;5067548;28;20198;-65
2022/06/26 04:14:29;;;;;;;3.53;2.87;;;25.40;56.10;;;;;;5063037;28;20193;-65
2022/06/26 04:17:02;;;;;;;3.13;2.83;;;25.40;56.10;;;;;;5057521;28;20209;-65
2022/06/26 04:19:33;;;;;;;5.37;3.00;;;25.40;56.00;;;;;;5067118;28;20185;-65
2022/06/26 04:22:03;;;;;;;3.23;2.47;;;25.40;56.10;;;;;;5067360;28;20198;-65
2022/06/26 04:24:35;;;;;;;5.10;2.67;;;25.40;56.00;;;;;;5063281;28;20190;-65
2022/06/26 04:27:06;;;;;;;2.70;2.50;;;25.40;56.00;;;;;;5067068;28;20182;-65
2022/06/26 04:29:33;;;;;;;4.73;2.73;;;25.30;55.90;;;;;;5066205;28;20237;-65
2022/06/26 04:32:06;;;;;;;3.63;2.80;;;25.40;55.90;;;;;;5067200;28;20201;-65
2022/06/26 04:34:35;;;;;;;3.23;2.80;;;25.40;55.90;;;;;;5061110;28;20263;-66
2022/06/26 04:37:05;;;;;;;4.17;2.70;;;25.30;55.80;;;;;;5066941;28;20205;-66
2022/06/26 04:39:35;;;;;;;3.53;2.67;;;25.30;55.80;;;;;;5066196;28;20206;-65
2022/06/26 04:42:05;;;;;;;3.67;3.03;;;25.30;55.80;;;;;;5067136;28;20316;-65
2022/06/26 04:44:35;;;;;;;5.13;2.93;;;25.30;55.70;;;;;;5061534;28;20194;-65
2022/06/26 04:47:07;;;;;;;3.20;2.90;;;25.30;55.70;;;;;;5066771;28;20194;-66
2022/06/26 04:49:36;;;;;;;4.47;2.73;;;25.30;55.70;;;;;;5069546;28;20221;-65
2022/06/26 04:52:03;;;;;;;2.93;2.47;;;25.30;55.70;;;;;;5053533;28;20198;-66
2022/06/26 04:54:33;;;;;;;5.07;2.93;;;25.30;55.70;;;;;;5067107;28;20194;-64
2022/06/26 04:57:06;;;;;;;3.63;2.23;;;25.30;55.50;;;;;;5068613;28;20619;-65
2022/06/26 04:59:38;;;;;;;4.43;2.80;;;25.30;55.50;;;;;;5069352;28;20236;-65
2022/06/26 05:02:11;;;;;;;4.93;3.10;;;25.30;55.50;;;;;;5065031;28;20258;-66
2022/06/26 05:04:42;;;;;;;3.37;2.73;;;25.30;55.60;;;;;;5050388;28;20178;-66
2022/06/26 05:07:11;;;;;;;3.60;2.90;;;25.30;55.50;;;;;;5071179;28;20259;-65
2022/06/26 05:09:42;;;;;;;3.27;2.90;;;25.30;55.40;;;;;;5067384;28;20221;-65
2022/06/26 05:12:12;;;;;;;4.13;2.70;;;25.20;55.20;;;;;;5068439;28;20255;-65
2022/06/26 05:14:39;;;;;;;4.10;2.90;;;25.20;55.20;;;;;;5047485;28;20996;-65
2022/06/26 05:17:09;;;;;;;5.80;2.87;;;25.20;55.00;;;;;;5066798;28;20225;-65
2022/06/26 05:19:43;;;;;;;4.67;2.83;;;25.20;55.00;;;;;;5067965;28;20267;-66
2022/06/26 05:22:14;;;;;;;3.00;2.70;;;25.20;55.00;;;;;;5072187;28;20713;-65
2022/06/26 05:24:42;;;;;;;3.60;3.17;;;25.20;55.20;;;;;;5049976;28;20721;-65
2022/06/26 05:27:11;;;;;;;5.70;3.00;;;25.20;55.10;;;;;;5070110;28;20193;-65
2022/06/26 05:29:43;;;;;;;4.47;2.70;;;25.20;54.90;;;;;;5069685;28;20794;-65
2022/06/26 05:32:14;;;;;;;3.40;2.93;;;25.20;54.80;;;;;;5050021;28;20190;-65
2022/06/26 05:34:42;;;;;;;3.50;2.77;;;25.20;54.80;;;;;;5064522;28;20485;-65
2022/06/26 05:37:13;;;;;;;3.33;2.93;;;25.20;54.80;;;;;;5066828;28;20217;-65
2022/06/26 05:39:42;;;;;;;4.63;2.50;;;25.20;54.80;;;;;;5069261;28;20190;-66
2022/06/26 05:42:13;;;;;;;5.30;3.20;;;25.20;54.90;;;;;;5070235;28;20220;-65
2022/06/26 05:44:42;;;;;;;3.53;2.50;;;25.20;54.80;;;;;;5064796;28;20198;-65
2022/06/26 05:47:10;;;;;;;3.60;2.90;;;25.20;54.80;;;;;;5068853;28;20206;-65
2022/06/26 05:49:41;;;;;;;4.13;2.57;;;25.20;54.80;;;;;;5070203;28;20189;-65
2022/06/26 05:52:12;;;;;;;5.03;2.50;;;25.20;54.80;;;;;;5062355;28;20212;-65
2022/06/26 05:54:41;;;;;;;3.73;3.00;;;25.20;54.80;;;;;;5066547;28;20205;-65
2022/06/26 05:57:11;;;;;;;2.73;2.43;;;25.20;54.80;;;;;;5058968;28;20241;-65
2022/06/26 05:59:42;;;;;;;3.47;2.67;;;25.20;54.60;;;;;;5068771;28;20259;-65
2022/06/26 06:02:12;;;;;;;4.33;3.17;;;25.20;54.70;;;;;;5067739;28;20739;-66
2022/06/26 06:04:41;;;;;;;5.30;2.70;;;25.20;54.60;;;;;;5047777;28;20251;-66
2022/06/26 06:07:16;;;;;;;4.80;2.97;;;25.10;54.50;;;;;;5069853;28;20219;-65
2022/06/26 06:09:45;;;;;;;4.07;3.10;;;25.20;54.70;;;;;;5049572;28;20210;-65
2022/06/26 06:12:14;;;;;;;4.37;2.60;;;25.20;54.70;;;;;;5069793;28;20194;-65
2022/06/26 06:14:44;;;;;;;3.13;2.50;;;25.20;54.70;;;;;;5065771;28;20210;-65
2022/06/26 06:20:15;;;;;;;4.60;2.80;;;25.20;54.90;;;;;;5069917;28;20184;-66
2022/06/26 06:22:54;;;;;;;4.43;2.60;;;25.10;54.40;;;;;;5061925;28;20294;-65
2022/06/26 06:25:22;;;;;;;3.33;2.67;;;25.20;54.60;;;;;;5064679;28;20225;-65
2022/06/26 06:27:52;;;;;;;3.60;2.63;;;25.10;54.50;;;;;;5069325;28;20198;-65
2022/06/26 06:30:23;;;;;;;3.43;2.27;;;25.20;54.60;;;;;;5066391;28;20248;-65
2022/06/26 06:32:54;;;;;;;6.27;2.43;;;25.20;54.60;;;;;;5065319;28;20224;-65
2022/06/26 06:35:23;;;;;;;3.53;2.60;;;25.20;54.70;;;;;;5041067;28;20211;-65
2022/06/26 06:37:51;;;;;;;3.03;2.70;;;25.20;54.70;;;;;;5050858;28;20228;-65
2022/06/26 06:40:19;;;;;;;3.53;2.40;;;25.10;54.50;;;;;;5048138;28;20197;-65
2022/06/26 06:42:51;;;;;;;3.97;2.80;;;25.10;54.50;;;;;;5068000;28;20637;-65
2022/06/26 06:45:21;;;;;;;3.00;2.70;;;25.10;54.40;;;;;;5066486;28;20214;-65
2022/06/26 06:48:05;;;;;;;3.27;2.40;;;25.10;54.30;;;;;;5062855;28;20282;-65
2022/06/26 06:50:35;;;;;;;2.87;2.40;;;25.10;54.20;;;;;;5064654;28;20621;-65
2022/06/26 06:53:03;;;;;;;4.60;2.60;;;25.10;54.20;;;;;;5054297;28;20213;-66
2022/06/26 06:55:34;;;;;;;4.00;2.63;;;25.10;54.40;;;;;;5067524;28;20189;-66
2022/06/26 06:58:08;;;;;;;4.73;2.70;;;25.10;54.40;;;;;;5063981;28;20228;-66
2022/06/26 07:00:36;;;;;;;6.07;3.07;;;25.10;54.40;;;;;;5066887;28;20693;-66
2022/06/26 07:03:21;;;;;;;3.87;2.70;;;25.10;54.30;;;;;;5053513;28;20189;-66
2022/06/26 07:05:53;;;;;;;4.33;3.00;;;25.10;54.40;;;;;;5068129;28;20262;-65
2022/06/26 07:08:21;;;;;;;6.10;2.90;;;25.10;55.10;;;;;;5067639;28;20186;-65
2022/06/26 07:10:55;;;;;;;4.67;2.90;;;25.10;54.50;;;;;;5050829;28;20193;-65
2022/06/26 07:13:29;;;;;;;3.30;2.30;;;25.10;54.40;;;;;;5045579;28;20198;-67
2022/06/26 07:15:59;;;;;;;4.38;2.50;;;25.10;54.40;;;;;;5045043;28;20428;-74
2022/06/26 07:18:29;;;;;;;6.13;2.30;;;25.20;54.50;;;;;;5058881;28;20218;-71
2022/06/26 07:20:59;;;;;;;4.73;2.37;;;25.30;62.70;;;;;;5062778;28;20214;-71
2022/06/26 07:23:30;;;;;;;3.60;2.27;;;25.20;54.30;;;;;;5067413;28;20198;-70
2022/06/26 07:25:59;;;;;;;6.47;2.23;;;25.20;54.20;;;;;;5040525;28;20233;-70
2022/06/26 07:28:28;;;;;;;2.17;1.70;;;25.30;54.10;;;;;;5058241;28;20306;-71
2022/06/26 07:30:55;;;;;;;2.53;1.90;;;25.30;53.90;;;;;;5043717;28;20242;-72
2022/06/26 07:36:13;;;;;;;4.27;1.90;;;25.40;53.80;;;;;;5059265;28;20205;-72
2022/06/26 07:38:43;;;;;;;9.30;3.13;;;25.50;53.70;;;;;;5043636;28;20202;-70
2022/06/26 07:41:10;;;;;;;22.60;6.40;;;25.50;53.80;;;;;;5067551;28;20189;-74
2022/06/26 07:43:38;;;;;;;23.87;7.03;;;25.50;54.50;;;;;;5050089;28;20193;-71
2022/06/26 07:46:09;;;;;;;20.90;7.17;;;25.50;54.60;;;;;;5064910;28;20210;-70
2022/06/26 07:48:42;;;;;;;20.27;6.40;;;25.60;54.80;;;;;;5063028;28;21052;-67
2022/06/26 07:51:13;;;;;;;22.63;7.53;;;25.60;54.80;;;;;;5065733;28;20190;-68
2022/06/26 07:53:45;;;;;;;25.23;6.00;;;25.60;54.80;;;;;;5067926;28;20202;-71
2022/06/26 07:56:20;;;;;;;19.43;6.13;;;25.70;54.80;;;;;;5051958;28;20194;-72
2022/06/26 07:58:48;;;;;;;10.80;5.10;;;25.80;54.50;;;;;;5042486;28;20228;-71
2022/06/26 08:01:17;;;;;;;9.50;4.40;;;25.80;54.40;;;;;;5039160;28;20616;-71
2022/06/26 08:03:49;;;;;;;7.77;3.93;;;25.80;54.50;;;;;;5047864;28;20651;-69
2022/06/26 08:06:19;;;;;;;7.20;3.50;;;25.80;54.30;;;;;;5065651;28;20194;-71
2022/06/26 08:08:46;;;;;;;6.07;2.97;;;25.90;54.10;;;;;;5040553;28;20512;-66
2022/06/26 08:11:13;;;;;;;5.20;2.97;;;25.90;54.20;;;;;;5065361;28;20210;-73
2022/06/26 08:13:41;;;;;;;6.93;2.70;;;26.00;53.80;;;;;;5045273;28;20198;-71
2022/06/26 08:16:11;;;;;;;5.30;2.50;;;26.00;53.80;;;;;;5061053;28;20185;-70
2022/06/26 08:18:38;;;;;;;4.23;2.30;;;26.00;53.50;;;;;;5058631;28;20424;-70
2022/06/26 08:23:55;;;;;;;2.27;1.80;;;26.10;53.30;;;;;;5026992;28;20566;-66
2022/06/26 08:26:27;;;;;;;3.20;1.80;;;26.10;52.70;;;;;;5063063;28;20200;-67
2022/06/26 08:28:55;;;;;;;2.90;2.10;;;26.10;52.20;;;;;;5060832;28;20201;-70
2022/06/26 08:31:22;;;;;;;2.70;1.87;;;26.10;52.10;;;;;;5048741;28;20197;-68
2022/06/26 08:33:57;;;;;;;5.07;1.77;;;26.00;52.00;;;;;;5063240;28;20228;-67
2022/06/26 08:36:27;;;;;;;3.00;1.67;;;26.00;52.00;;;;;;5062385;28;20197;-66
2022/06/26 08:39:07;;;;;;;3.53;1.80;;;26.10;52.20;;;;;;5031691;28;20217;-69
2022/06/26 08:41:51;;;;;;;2.87;1.80;;;26.00;52.10;;;;;;5063067;28;20545;-69
2022/06/26 08:44:23;;;;;;;2.87;2.17;;;26.10;52.00;;;;;;5031064;28;20205;-68
2022/06/26 08:46:58;;;;;;;4.17;2.40;;;26.10;51.90;;;;;;5049182;28;20727;-67
2022/06/26 08:49:41;;;;;;;3.83;2.30;;;26.00;51.80;;;;;;5039459;28;20204;-67
2022/06/26 08:52:15;;;;;;;5.20;2.57;;;26.10;51.80;;;;;;5047628;28;20228;-68
2022/06/26 08:54:45;;;;;;;3.43;2.00;;;;;;;;;;5062224;28;20228;-69
2022/06/26 08:57:16;;;;;;;3.53;2.47;;;;;;;;;;5062576;28;20224;-69
2022/06/26 08:59:45;;;;;;;3.03;2.50;;;;;;;;;;5059891;28;20225;-67
2022/06/26 09:02:17;;;;;;;4.63;2.77;;;;;;;;;;5060172;28;20724;-67
2022/06/26 09:04:46;;;;;;;5.43;2.50;;;;;;;;;;5063860;28;20204;-68
2022/06/26 09:07:14;;;;;;;3.00;2.50;;;;;;;;;;5064411;28;20650;-69
2022/06/26 09:09:45;;;;;;;3.37;2.20;;;;;;;;;;5055130;28;20203;-68
2022/06/26 09:12:12;;;;;;;4.37;2.27;;;;;;;;;;5060984;28;20204;-70
2022/06/26 09:14:41;;;;;;;4.57;2.30;;;;;;;;;;5064027;28;20288;-71
2022/06/26 09:17:12;;;;;;;2.80;2.07;;;;;;;;;;5065140;28;20186;-72
2022/06/26 09:19:47;;;;;;;2.67;1.67;;;;;;;;;;5058642;28;20214;-71
2022/06/26 09:22:17;;;;;;;2.87;2.10;;;;;;;;;;5061921;28;20729;-71
2022/06/26 09:24:57;;;;;;;4.20;1.70;;;;;;;;;;5061293;28;20208;-73
2022/06/26 09:27:26;;;;;;;3.47;1.87;;;;;;;;;;5062572;28;20198;-73
2022/06/26 09:29:57;;;;;;;3.30;2.13;;;;;;;;;;5062857;28;20229;-73
2022/06/26 09:32:27;;;;;;;2.23;1.90;;;;;;;;;;5062601;28;20205;-71
2022/06/26 09:35:02;;;;;;;3.87;1.90;;;;;;;;;;5051721;28;20200;-69
2022/06/26 09:37:38;;;;;;;2.60;1.83;;;;;;;;;;5062539;28;20198;-73
2022/06/26 09:40:24;;;;;;;5.60;1.90;;;;;;;;;;5052524;28;20575;-72
2022/06/26 09:42:58;;;;;;;2.30;1.73;;;;;;;;;;5065503;28;20207;-72
2022/06/26 09:45:37;;;;;;;2.80;2.17;;;;;;;;;;5065947;28;20305;-68
2022/06/26 09:48:10;;;;;;;2.93;1.73;;;;;;;;;;5069069;28;20198;-67
2022/06/26 09:50:48;;;;;;;5.33;2.50;;;;;;;;;;5066140;28;20199;-69
2022/06/26 09:53:20;;;;;;;3.80;2.00;;;;;;;;;;5051183;28;20209;-73
2022/06/26 09:55:50;;;;;;;2.50;1.80;;;;;;;;;;5035823;28;20202;-74
2022/06/26 09:58:19;;;;;;;2.70;1.40;;;;;;;;;;5046033;28;20217;-71
2022/06/26 10:06:28;;;;;;;2.50;1.83;;;;;;;;;;5066173;28;20190;-71
2022/06/26 10:09:02;;;;;;;2.23;1.80;;;;;;;;;;5063168;28;20822;-71
2022/06/26 10:11:34;;;;;;;2.67;1.90;;;;;;;;;;5068435;28;20305;-70
2022/06/26 10:14:23;;;;;;;1.93;1.60;;;;;;;;;;5067831;28;20309;-72
2022/06/26 10:16:57;;;;;;;2.57;1.83;;;;;;;;;;5049167;28;20219;-70
2022/06/26 10:19:32;;;;;;;3.40;1.90;;;;;;;;;;5068197;28;20220;-71
2022/06/26 10:22:01;;;;;;;7.97;2.30;;;;;;;;;;5065333;28;20219;-72
2022/06/26 10:24:29;;;;;;;2.97;1.70;;;;;;;;;;5059825;28;20216;-73
2022/06/26 10:26:59;;;;;;;4.77;1.83;;;;;;;;;;5068565;28;20198;-70
2022/06/26 10:29:38;;;;;;;3.70;1.87;;;;;;;;;;5066129;28;20229;-69
2022/06/26 10:32:08;;;;;;;3.57;1.93;;;;;;;;;;5046723;28;20201;-69
2022/06/26 10:34:37;;;;;;;3.80;2.07;;;;;;;;;;5063398;28;20213;-67
2022/06/26 10:37:13;;;;;;;3.70;2.20;;;;;;;;;;5063347;28;20209;-66
2022/06/26 10:39:58;;;;;;;3.63;2.40;;;;;;;;;;5062562;28;20217;-70
2022/06/26 10:45:27;;;;;;;3.67;2.00;;;;;;;;;;5064448;28;20217;-69
2022/06/26 10:47:56;;;;;;;4.23;2.13;;;;;;;;;;5065287;28;20194;-70
2022/06/26 10:50:25;;;;;;;4.40;1.97;;;;;;;;;;5062563;28;20210;-68
2022/06/26 10:52:53;;;;;;;4.20;2.20;;;;;;;;;;5064296;28;20601;-68
2022/06/26 10:55:20;;;;;;;2.60;2.30;;;;;;;;;;5068140;28;20189;-68
2022/06/26 10:57:49;;;;;;;5.03;2.47;;;;;;;;;;5065785;28;20217;-68
2022/06/26 11:00:16;;;;;;;4.57;2.67;;;;;;;;;;5055020;28;20208;-68
2022/06/26 11:02:44;;;;;;;3.03;2.33;;;;;;;;;;5065780;28;20198;-68
2022/06/26 11:05:13;;;;;;;4.00;2.17;;;;;;;;;;5067990;28;20599;-68
2022/06/26 11:07:47;;;;;;;3.43;2.20;;;;;;;;;;5067479;28;20205;-68
2022/06/26 11:10:17;;;;;;;5.40;2.67;;;;;;;;;;5064414;28;20233;-68
2022/06/26 11:12:49;;;;;;;8.10;2.63;;;;;;;;;;5060345;28;20285;-69
2022/06/26 11:15:33;;;;;;;2.97;2.10;;;;;;;;;;5047166;28;20189;-69
2022/06/26 11:18:01;;;;;;;6.23;2.87;;;;;;;;;;5051702;28;20581;-68
2022/06/26 11:20:46;;;;;;;3.07;1.90;;;;;;;;;;5058210;28;20225;-68
2022/06/26 11:23:20;;;;;;;3.07;2.10;;;;;;;;;;5048328;28;20182;-68
2022/06/26 11:25:48;;;;;;;3.13;2.10;;;;;;;;;;5067150;28;20621;-69
2022/06/26 11:28:16;;;;;;;2.57;2.07;;;;;;;;;;5066063;28;20198;-69
2022/06/26 11:30:47;;;;;;;3.37;2.00;;;;;;;;;;5066786;28;20550;-69
2022/06/26 11:33:22;;;;;;;5.27;2.40;;;;;;;;;;5057177;28;20827;-69
2022/06/26 11:35:50;;;;;;;2.50;2.10;;;;;;;;;;5061499;28;20193;-69
2022/06/26 11:38:18;;;;;;;5.17;2.10;;;;;;;;;;5068115;28;20655;-69
2022/06/26 11:40:46;;;;;;;8.97;2.10;;;;;;;;;;5058349;28;20191;-67
2022/06/26 11:43:14;;;;;;;5.50;2.20;;;;;;;;;;5065955;28;20599;-67
2022/06/26 11:45:43;;;;;;;3.27;2.37;;;;;;;;;;5064354;28;20210;-67
2022/06/26 11:48:16;;;;;;;3.77;2.20;;;;;;;;;;5049961;28;20194;-67
2022/06/26 11:50:45;;;;;;;12.67;2.40;;;;;;;;;;5048438;28;20202;-67
2022/06/26 11:53:17;;;;;;;17.30;3.53;;;;;;;;;;5048410;28;20206;-66
2022/06/26 11:55:47;;;;;;;8.90;3.13;;;;;;;;;;5063931;28;20198;-66
2022/06/26 11:58:15;;;;;;;9.77;2.67;;;;;;;;;;5059678;28;20216;-67
2022/06/26 12:00:42;;;;;;;5.33;2.70;;;;;;;;;;5063276;28;20222;-69
2022/06/26 12:03:11;;;;;;;3.63;2.17;;;;;;;;;;5058863;28;20208;-68
2022/06/26 12:05:40;;;;;;;3.27;2.30;;;;;;;;;;5063910;28;20213;-67
2022/06/26 12:08:15;;;;;;;3.60;2.20;;;;;;;;;;5066495;28;20189;-66
2022/06/26 12:10:42;;;;;;;3.90;2.40;;;;;;;;;;5059747;28;20209;-66
2022/06/26 12:13:20;;;;;;;6.63;2.20;;;;;;;;;;5066309;28;20555;-66
2022/06/26 12:15:47;;;;;;;5.17;2.60;;;;;;;;;;5062830;28;20193;-67
2022/06/26 12:18:14;;;;;;;5.90;2.27;;;;;;;;;;5060935;28;20567;-67
2022/06/26 12:20:42;;;;;;;5.20;2.10;;;;;;;;;;5059523;28;20307;-67
2022/06/26 12:23:10;;;;;;;3.13;2.10;;;;;;;;;;5068807;28;20224;-67
2022/06/26 12:25:39;;;;;;;4.43;1.83;;;;;;;;;;5064415;28;20186;-68
2022/06/26 12:28:07;;;;;;;3.50;2.00;;;;;;;;;;5060737;28;20205;-68
2022/06/26 12:30:36;;;;;;;3.73;2.20;;;;;;;;;;5059867;28;20237;-67
2022/06/26 12:33:04;;;;;;;5.73;2.30;;;;;;;;;;5042100;28;20214;-66
2022/06/26 12:35:32;;;;;;;4.23;2.00;;;;;;;;;;5043147;28;20544;-68
2022/06/26 12:38:00;;;;;;;3.10;1.93;;;;;;;;;;5061639;28;20571;-68
2022/06/26 12:40:28;;;;;;;3.13;1.80;;;;;;;;;;5062380;28;20248;-68
2022/06/26 12:42:55;;;;;;;2.07;1.83;;;;;;;;;;5061842;28;20224;-68
2022/06/26 12:45:22;;;;;;;4.27;1.93;;;;;;;;;;5060843;28;20702;-67
2022/06/26 12:47:50;;;;;;;2.63;1.80;;;;;;;;;;5064412;28;20514;-66
2022/06/26 12:50:18;;;;;;;2.10;1.67;;;;;;;;;;5059345;28;20223;-66
2022/06/26 12:52:46;;;;;;;2.50;2.00;;;;;;;;;;5041990;28;20198;-67
2022/06/26 12:55:13;;;;;;;3.63;2.03;;;;;;;;;;5064169;28;20202;-66
2022/06/26 12:57:40;;;;;;;3.27;2.00;;;;;;;;;;5060262;28;20206;-66
2022/06/26 13:00:08;;;;;;;6.57;2.20;;;;;;;;;;5055994;28;20252;-67
2022/06/26 13:02:35;;;;;;;3.47;2.03;;;;;;;;;;5043692;28;20190;-67
2022/06/26 13:05:03;;;;;;;5.57;2.20;;;;;;;;;;5064834;28;20697;-68
2022/06/26 13:07:30;;;;;;;4.27;2.20;;;;;;;;;;5038151;28;20282;-68
2022/06/26 13:09:58;;;;;;;2.93;1.60;;;;;;;;;;5064973;28;20256;-68
2022/06/26 13:12:25;;;;;;;6.70;2.17;;;;;;;;;;5061302;28;20193;-68
2022/06/26 13:14:53;;;;;;;3.27;2.00;;;;;;;;;;5064547;28;20182;-67
2022/06/26 13:17:20;;;;;;;3.43;2.17;;;;;;;;;;5067295;28;20198;-68
2022/06/26 13:19:47;;;;;;;4.20;1.70;;;;;;;;;;5068480;28;20217;-67
2022/06/26 13:22:15;;;;;;;2.63;2.10;;;;;;;;;;5067361;28;20205;-67
2022/06/26 13:24:42;;;;;;;4.77;2.50;;;;;;;;;;5041597;28;20589;-67
2022/06/26 13:27:09;;;;;;;2.80;2.20;;;;;;;;;;5069182;28;20190;-67
2022/06/26 13:29:37;;;;;;;2.23;1.60;;;;;;;;;;5067881;28;20217;-68
2022/06/26 13:32:05;;;;;;;5.50;1.87;;;;;;;;;;5068460;28;21025;-66
2022/06/26 13:34:35;;;;;;;2.60;1.73;;;;;;;;;;5061757;28;20534;-66
2022/06/26 13:37:06;;;;;;;2.70;1.57;;;;;;;;;;5050434;28;20692;-65
2022/06/26 13:39:39;;;;;;;4.53;1.50;;;;;;;;;;5063910;28;20374;-65
2022/06/26 13:42:09;;;;;;;7.03;1.87;;;;;;;;;;5067661;28;20182;-65
2022/06/26 13:44:39;;;;;;;1.93;1.23;;;;;;;;;;5061603;28;20196;-65
2022/06/26 13:47:08;;;;;;;2.27;1.50;;;;;;;;;;5067997;28;20198;-65
2022/06/26 13:49:40;;;;;;;2.57;1.57;;;;;;;;;;5043825;28;20205;-66
2022/06/26 13:52:10;;;;;;;2.00;1.60;;;;;;;;;;5067001;28;20209;-67
2022/06/26 13:54:39;;;;;;;3.60;1.50;;;;;;;;;;5064112;28;20198;-67
2022/06/26 13:57:07;;;;;;;4.23;2.00;;;;;;;;;;5064298;28;20213;-67
2022/06/26 13:59:39;;;;;;;11.43;1.97;;;;;;;;;;5065284;28;20221;-65
2022/06/26 14:02:09;;;;;;;4.13;2.23;;;;;;;;;;5050316;28;20235;-65